Time;durP1;ratioP1;P1;durP2;ratioP2;P2;SDS_P1;SDS_P2;PMS_P1;PMS_P2;Temp;Humidity;BMP_temperature;BMP_pressure;BME280_temperature;BME280_humidity;BME280_pressure;Samples;Min_cycle;Max_cycle;Signal;HPM_P1;HPM_P2
2022/06/20 00:01:09;;;;;;;12.53;2.80;;;12.50;99.90;;;;;;5029978;28;20449;-53
2022/06/20 00:03:41;;;;;;;4.87;2.10;;;12.50;99.90;;;;;;5033560;28;20225;-54
2022/06/20 00:06:19;;;;;;;10.23;2.60;;;12.40;99.90;;;;;;5031522;28;20278;-54
2022/06/20 00:08:45;;;;;;;10.50;2.50;;;12.40;1.00;;;;;;5027416;28;20464;-53
2022/06/20 00:11:16;;;;;;;12.83;3.40;;;12.40;1.00;;;;;;5033073;28;20481;-53
2022/06/20 00:13:45;;;;;;;8.83;3.20;;;12.30;1.00;;;;;;5020292;28;20437;-58
2022/06/20 00:16:16;;;;;;;6.57;2.63;;;12.30;1.00;;;;;;5033109;28;20422;-54
2022/06/20 00:18:42;;;;;;;9.47;3.30;;;12.30;1.00;;;;;;5030678;28;20478;-54
2022/06/20 00:21:13;;;;;;;8.63;2.90;;;12.30;1.00;;;;;;5031197;28;20492;-53
2022/06/20 00:23:39;;;;;;;9.10;2.90;;;12.30;1.00;;;;;;5033263;28;20279;-53
2022/06/20 00:26:04;;;;;;;10.43;2.83;;;12.30;1.00;;;;;;5031868;28;20545;-53
2022/06/20 00:28:31;;;;;;;7.10;2.40;;;12.20;1.00;;;;;;5032827;28;20194;-54
2022/06/20 00:30:56;;;;;;;13.97;3.37;;;12.20;1.00;;;;;;5032017;28;20258;-54
2022/06/20 00:33:22;;;;;;;8.87;2.70;;;12.30;1.00;;;;;;5030785;28;20477;-53
2022/06/20 00:35:47;;;;;;;8.17;3.00;;;12.30;1.00;;;;;;5031918;28;20265;-53
2022/06/20 00:38:20;;;;;;;7.70;2.73;;;12.20;1.00;;;;;;5032741;28;20226;-53
2022/06/20 00:40:49;;;;;;;7.80;2.70;;;12.30;1.00;;;;;;5032009;28;20217;-53
2022/06/20 00:43:35;;;;;;;14.50;2.60;;;12.30;1.00;;;;;;5032076;28;20449;-54
2022/06/20 00:46:12;;;;;;;11.27;3.10;;;12.30;1.00;;;;;;5030550;28;20489;-53
2022/06/20 00:48:46;;;;;;;6.83;3.00;;;12.30;1.00;;;;;;5031019;28;20503;-54
2022/06/20 00:51:26;;;;;;;9.80;2.90;;;12.30;1.00;;;;;;5031762;28;20540;-54
2022/06/20 00:54:03;;;;;;;10.77;3.20;;;12.30;1.00;;;;;;5030626;28;20907;-54
2022/06/20 00:56:50;;;;;;;10.77;3.10;;;12.30;1.00;;;;;;5030274;28;20541;-53
2022/06/20 00:59:21;;;;;;;5.77;3.07;;;12.40;1.00;;;;;;5031363;28;20473;-54
2022/06/20 01:01:48;;;;;;;11.77;3.33;;;12.40;1.00;;;;;;5032616;28;20446;-53
2022/06/20 01:04:39;;;;;;;9.77;3.30;;;12.40;1.00;;;;;;5030211;28;21381;-53
2022/06/20 01:07:11;;;;;;;7.93;2.80;;;12.40;1.00;;;;;;5030568;28;20477;-53
2022/06/20 01:09:40;;;;;;;9.43;3.17;;;12.40;1.00;;;;;;5029497;28;20445;-53
2022/06/20 01:12:13;;;;;;;11.80;3.20;;;12.40;1.00;;;;;;5030780;28;20434;-54
2022/06/20 01:14:39;;;;;;;12.40;2.50;;;12.40;1.00;;;;;;5030950;28;20441;-53
2022/06/20 01:17:27;;;;;;;14.07;3.30;;;12.40;1.00;;;;;;5030339;28;20441;-53
2022/06/20 01:20:06;;;;;;;10.20;3.10;;;12.40;1.00;;;;;;5029987;28;20488;-53
2022/06/20 01:22:45;;;;;;;9.60;3.13;;;12.40;1.00;;;;;;5026761;28;20480;-54
2022/06/20 01:25:35;;;;;;;8.60;2.80;;;12.30;1.00;;;;;;5029752;28;21185;-54
2022/06/20 01:28:01;;;;;;;10.70;3.23;;;12.30;1.00;;;;;;5030015;28;21086;-53
2022/06/20 01:30:32;;;;;;;12.63;3.20;;;12.30;1.00;;;;;;5031928;28;20437;-53
2022/06/20 01:32:58;;;;;;;9.60;2.73;;;12.30;1.00;;;;;;5029758;28;20434;-54
2022/06/20 01:38:14;;;;;;;14.97;2.93;;;12.20;1.00;;;;;;5028163;28;20543;-53
2022/06/20 01:42:18;;;;;;;12.37;2.60;;;12.10;1.00;;;;;;5030376;28;20446;-54
2022/06/20 01:43:29;;;;;;;6.70;2.50;;;12.10;1.00;;;;;;5028970;28;20453;-55
2022/06/20 01:45:57;;;;;;;14.30;3.20;;;12.10;1.00;;;;;;5029257;28;20585;-53
2022/06/20 01:48:26;;;;;;;9.00;2.60;;;12.00;1.00;;;;;;5030754;28;20434;-54
2022/06/20 01:50:52;;;;;;;17.30;3.20;;;12.00;1.00;;;;;;5032111;28;20428;-53
2022/06/20 01:53:23;;;;;;;10.30;2.67;;;11.90;1.00;;;;;;5028979;28;20491;-53
2022/06/20 01:55:53;;;;;;;7.63;3.00;;;11.90;1.00;;;;;;5030828;28;21004;-54
2022/06/20 01:58:30;;;;;;;8.30;4.70;;;11.90;1.00;;;;;;5026433;28;20469;-53
2022/06/20 02:00:59;;;;;;;9.23;2.77;;;11.80;1.00;;;;;;5031015;28;20434;-53
2022/06/20 02:03:25;;;;;;;9.43;3.03;;;11.80;1.00;;;;;;5029905;28;20473;-53
2022/06/20 02:05:55;;;;;;;8.07;2.80;;;11.80;1.00;;;;;;5031530;28;21272;-58
2022/06/20 02:08:22;;;;;;;12.23;3.37;;;11.80;1.00;;;;;;5027384;28;20301;-53
2022/06/20 02:11:16;;;;;;;6.87;2.90;;;11.80;1.00;;;;;;5030904;28;20453;-53
2022/06/20 02:13:46;;;;;;;15.33;2.63;;;11.80;1.00;;;;;;5029338;28;20555;-53
2022/06/20 02:16:16;;;;;;;6.03;3.07;;;11.90;1.00;;;;;;5030735;28;20918;-54
2022/06/20 02:18:44;;;;;;;7.17;2.80;;;11.90;1.00;;;;;;5028552;28;20523;-54
2022/06/20 02:21:17;;;;;;;11.33;2.63;;;11.90;1.00;;;;;;5030932;28;20438;-53
2022/06/20 02:23:49;;;;;;;11.13;2.50;;;11.80;1.00;;;;;;5029193;28;20437;-53
2022/06/20 02:26:16;;;;;;;11.00;3.10;;;11.70;1.00;;;;;;5030722;28;20892;-53
2022/06/20 02:28:48;;;;;;;6.57;2.63;;;11.70;1.00;;;;;;5030554;28;20441;-54
2022/06/20 02:31:15;;;;;;;6.37;2.67;;;11.60;1.00;;;;;;5027739;28;20429;-53
2022/06/20 02:33:41;;;;;;;11.10;3.43;;;11.50;1.00;;;;;;5030303;28;20492;-53
2022/06/20 02:36:07;;;;;;;11.63;3.30;;;11.50;1.00;;;;;;5028825;28;20933;-53
2022/06/20 02:38:34;;;;;;;10.20;3.57;;;11.40;1.00;;;;;;5027940;28;20469;-53
2022/06/20 02:41:01;;;;;;;5.70;2.70;;;11.40;1.00;;;;;;5029188;28;21113;-53
2022/06/20 02:43:39;;;;;;;6.00;2.73;;;11.30;1.00;;;;;;5029129;28;20456;-52
2022/06/20 02:46:09;;;;;;;11.70;3.27;;;11.30;1.00;;;;;;5020014;28;20500;-53
2022/06/20 02:48:37;;;;;;;13.73;3.30;;;11.20;1.00;;;;;;5028960;28;20443;-60
2022/06/20 02:51:06;;;;;;;9.50;2.90;;;11.20;1.00;;;;;;5029297;28;20441;-53
2022/06/20 02:53:47;;;;;;;11.97;2.90;;;11.20;1.00;;;;;;5029032;28;20445;-52
2022/06/20 02:56:16;;;;;;;12.00;2.93;;;11.10;1.00;;;;;;5028577;28;21111;-53
2022/06/20 02:58:46;;;;;;;13.83;3.10;;;11.10;1.00;;;;;;5029166;28;20504;-53
2022/06/20 03:01:32;;;;;;;12.90;3.77;;;11.10;1.00;;;;;;5029813;28;20450;-53
2022/06/20 03:03:58;;;;;;;12.27;3.10;;;11.10;1.00;;;;;;5024163;28;20441;-53
2022/06/20 03:06:33;;;;;;;12.80;3.40;;;11.00;1.00;;;;;;5028570;28;20472;-52
2022/06/20 03:08:59;;;;;;;9.97;3.27;;;11.10;1.00;;;;;;5028818;28;20502;-53
2022/06/20 03:11:28;;;;;;;8.43;3.30;;;11.10;99.90;;;;;;5029340;28;21049;-53
2022/06/20 03:13:57;;;;;;;7.30;3.20;;;11.10;99.90;;;;;;5029645;28;20457;-53
2022/06/20 03:16:23;;;;;;;10.03;4.30;;;11.10;99.90;;;;;;5029163;28;20437;-53
2022/06/20 03:18:50;;;;;;;10.73;3.20;;;11.10;99.90;;;;;;5028994;28;20805;-54
2022/06/20 03:21:28;;;;;;;8.27;3.30;;;11.00;99.90;;;;;;5029339;28;20948;-53
2022/06/20 03:23:53;;;;;;;12.00;3.73;;;11.00;99.90;;;;;;5030465;28;20485;-53
2022/06/20 03:26:23;;;;;;;12.93;4.00;;;11.00;99.90;;;;;;5039414;28;20803;-53
2022/06/20 03:28:50;;;;;;;10.27;3.67;;;11.00;99.90;;;;;;5027635;28;20613;-53
2022/06/20 03:31:16;;;;;;;10.50;3.17;;;11.10;1.00;;;;;;5029834;28;20449;-53
2022/06/20 03:33:42;;;;;;;7.43;3.30;;;11.10;99.90;;;;;;5028498;28;20448;-53
2022/06/20 03:36:19;;;;;;;16.30;4.63;;;11.20;99.90;;;;;;5028324;28;20289;-53
2022/06/20 03:38:46;;;;;;;21.77;4.50;;;11.40;99.90;;;;;;5020098;28;20214;-53
2022/06/20 03:41:15;;;;;;;7.20;3.60;;;11.40;99.90;;;;;;5029123;28;20437;-53
2022/06/20 03:43:45;;;;;;;10.10;4.13;;;11.40;1.50;;;;;;5028501;28;20441;-53
2022/06/20 03:46:30;;;;;;;13.50;4.37;;;11.60;99.90;;;;;;5028068;28;20452;-53
2022/06/20 03:48:58;;;;;;;12.37;4.00;;;11.60;1.00;;;;;;5029698;28;20441;-53
2022/06/20 03:51:30;;;;;;;10.73;4.10;;;11.60;1.00;;;;;;5028106;28;20923;-53
2022/06/20 03:54:02;;;;;;;9.37;3.77;;;11.60;37.10;;;;;;5028200;28;20536;-53
2022/06/20 03:56:36;;;;;;;14.10;4.57;;;11.60;99.90;;;;;;5028162;28;20577;-53
2022/06/20 03:59:08;;;;;;;10.80;3.97;;;11.70;99.90;;;;;;5029150;28;20483;-54
2022/06/20 04:01:47;;;;;;;15.90;5.43;;;11.70;99.90;;;;;;5030042;28;20437;-53
2022/06/20 04:04:52;;;;;;;9.20;3.90;;;11.80;99.90;;;;;;5023926;28;20437;-53
2022/06/20 04:07:27;;;;;;;15.43;4.50;;;11.80;99.90;;;;;;5025847;28;20448;-54
2022/06/20 04:13:16;;;;;;;22.50;5.23;;;12.00;64.00;;;;;;5028241;28;20448;-53
2022/06/20 04:15:49;;;;;;;11.60;5.07;;;12.10;32.20;;;;;;5029955;28;20477;-53
2022/06/20 04:18:28;;;;;;;21.60;5.40;;;12.10;1.00;;;;;;5032020;28;20501;-53
2022/06/20 04:21:08;;;;;;;16.53;5.00;;;12.20;99.90;;;;;;5032809;28;20915;-52
2022/06/20 04:24:02;;;;;;;17.00;5.40;;;12.30;99.90;;;;;;5030930;28;20466;-53
2022/06/20 04:26:48;;;;;;;26.70;6.17;;;12.40;99.90;;;;;;5033330;28;20453;-53
2022/06/20 04:29:16;;;;;;;19.27;5.90;;;12.40;42.70;;;;;;5032644;28;20809;-52
2022/06/20 04:31:49;;;;;;;15.83;4.97;;;12.40;1.00;;;;;;5028888;28;20449;-54
2022/06/20 04:34:45;;;;;;;9.47;4.10;;;12.40;1.00;;;;;;5032767;28;20687;-53
2022/06/20 04:37:25;;;;;;;13.13;4.37;;;12.40;1.00;;;;;;5027266;28;20449;-53
2022/06/20 04:40:01;;;;;;;17.10;3.70;;;12.50;1.00;;;;;;5033647;28;21302;-53
2022/06/20 04:42:39;;;;;;;9.90;4.17;;;12.60;1.00;;;;;;5031597;28;20503;-53
2022/06/20 04:45:43;;;;;;;13.93;4.07;;;12.70;1.00;;;;;;5033263;28;20457;-53
2022/06/20 04:48:16;;;;;;;18.27;4.00;;;12.90;99.90;;;;;;5032605;28;20444;-53
2022/06/20 04:50:46;;;;;;;13.87;4.00;;;13.00;99.90;;;;;;5032618;28;20429;-53
2022/06/20 04:53:15;;;;;;;14.47;4.03;;;13.20;99.90;;;;;;5030649;28;20441;-54
2022/06/20 04:55:44;;;;;;;9.30;3.60;;;13.30;99.90;;;;;;5032232;28;20495;-53
2022/06/20 04:58:18;;;;;;;9.67;4.43;;;13.40;99.90;;;;;;5032599;28;21057;-54
2022/06/20 05:00:46;;;;;;;22.13;3.90;;;13.50;99.90;;;;;;5031794;28;20418;-54
2022/06/20 05:03:20;;;;;;;14.73;3.57;;;13.60;99.90;;;;;;5032133;28;20484;-54
2022/06/20 05:05:49;;;;;;;10.23;3.37;;;13.70;99.90;;;;;;5030510;28;20508;-54
2022/06/20 05:08:19;;;;;;;9.87;3.60;;;13.90;99.90;;;;;;5030880;28;20502;-53
2022/06/20 05:10:50;;;;;;;12.47;3.67;;;14.00;99.90;;;;;;5032886;28;20448;-54
2022/06/20 05:13:27;;;;;;;10.10;3.40;;;14.20;99.90;;;;;;5031403;28;20954;-60
2022/06/20 05:15:54;;;;;;;9.47;3.10;;;14.20;99.90;;;;;;5032662;28;20491;-53
2022/06/20 05:18:41;;;;;;;10.23;3.00;;;14.40;99.90;;;;;;5022626;28;20465;-54
2022/06/20 05:21:16;;;;;;;13.53;3.20;;;14.60;99.90;;;;;;5024522;28;20863;-53
2022/06/20 05:23:49;;;;;;;9.50;2.83;;;14.70;99.90;;;;;;5031982;28;20449;-53
2022/06/20 05:26:22;;;;;;;13.30;3.07;;;14.80;99.90;;;;;;5031955;28;20433;-54
2022/06/20 05:28:51;;;;;;;17.77;2.77;;;14.90;99.90;;;;;;5022599;28;20474;-55
2022/06/20 05:31:27;;;;;;;9.70;2.80;;;15.10;99.90;;;;;;5032132;28;20465;-53
2022/06/20 05:33:59;;;;;;;7.83;2.87;;;15.20;99.90;;;;;;5027679;28;20515;-54
2022/06/20 05:36:27;;;;;;;9.87;3.07;;;15.50;99.90;;;;;;5032025;28;20794;-54
2022/06/20 05:39:04;;;;;;;12.00;2.60;;;15.80;99.90;;;;;;5031221;28;20829;-54
2022/06/20 05:41:30;;;;;;;8.53;2.30;;;16.00;99.90;;;;;;5032021;28;20898;-54
2022/06/20 05:43:56;;;;;;;9.00;2.23;;;16.20;99.90;;;;;;5031828;28;20452;-60
2022/06/20 05:46:33;;;;;;;8.47;2.27;;;16.10;99.90;;;;;;5032740;28;20257;-54
2022/06/20 05:49:06;;;;;;;10.60;2.57;;;16.00;99.90;;;;;;5027052;28;20535;-54
2022/06/20 05:51:36;;;;;;;10.73;2.93;;;15.70;99.90;;;;;;5033385;28;20406;-54
2022/06/20 05:54:18;;;;;;;11.50;2.60;;;15.60;99.90;;;;;;5033729;28;20509;-54
2022/06/20 05:57:04;;;;;;;10.30;2.70;;;15.70;99.90;;;;;;5032693;28;20484;-54
2022/06/20 05:59:34;;;;;;;16.73;3.77;;;16.10;99.90;;;;;;5030398;28;20477;-55
2022/06/20 06:02:11;;;;;;;9.43;2.60;;;16.50;99.90;;;;;;5032617;28;20512;-54
2022/06/20 06:04:44;;;;;;;11.43;2.43;;;16.60;99.90;;;;;;5032155;28;20429;-53
2022/06/20 06:07:14;;;;;;;9.90;2.60;;;16.40;99.90;;;;;;5025116;28;20491;-54
2022/06/20 06:09:45;;;;;;;13.33;2.63;;;16.30;99.90;;;;;;5032344;28;20456;-54
2022/06/20 06:12:22;;;;;;;14.50;2.33;;;16.40;99.90;;;;;;5024764;28;20448;-54
2022/06/20 06:15:15;;;;;;;5.67;2.53;;;16.70;99.90;;;;;;5032685;28;20451;-66
2022/06/20 06:17:56;;;;;;;13.40;3.10;;;16.90;99.90;;;;;;5015110;28;20837;-54
2022/06/20 06:20:26;;;;;;;10.73;2.70;;;17.00;99.90;;;;;;5032499;28;20426;-54
2022/06/20 06:22:56;;;;;;;9.27;2.50;;;16.70;99.90;;;;;;5032306;28;20426;-54
2022/06/20 06:25:31;;;;;;;7.37;2.40;;;16.60;99.90;;;;;;5033644;28;20409;-53
2022/06/20 06:28:17;;;;;;;4.60;1.70;;;16.40;99.90;;;;;;5031553;28;20434;-54
2022/06/20 06:31:04;;;;;;;10.03;2.30;;;16.30;99.90;;;;;;5033419;28;20426;-54
2022/06/20 06:33:43;;;;;;;9.80;2.23;;;16.20;99.90;;;;;;5030237;28;20426;-55
2022/06/20 06:36:32;;;;;;;5.00;1.70;;;16.10;99.90;;;;;;5033014;28;20456;-53
2022/06/20 06:39:08;;;;;;;10.10;1.90;;;15.90;99.90;;;;;;5032035;28;20476;-57
2022/06/20 06:41:38;;;;;;;4.27;2.10;;;15.70;99.90;;;;;;5031246;28;20417;-53
2022/06/20 06:44:18;;;;;;;5.87;2.23;;;15.60;99.90;;;;;;5031684;28;20968;-54
2022/06/20 06:46:48;;;;;;;6.67;2.37;;;15.40;99.90;;;;;;5027124;28;20528;-53
2022/06/20 06:49:23;;;;;;;10.53;2.70;;;15.40;99.90;;;;;;5029875;28;20453;-51
2022/06/20 06:52:02;;;;;;;10.27;3.23;;;15.40;99.90;;;;;;5029001;28;20433;-53
2022/06/20 06:54:43;;;;;;;9.33;3.10;;;15.50;99.90;;;;;;5029064;28;20548;-54
2022/06/20 06:57:18;;;;;;;4.83;2.50;;;15.60;99.90;;;;;;5031346;28;20452;-54
2022/06/20 07:00:05;;;;;;;8.30;3.10;;;15.60;99.90;;;;;;5044586;28;20897;-54
2022/06/20 07:02:51;;;;;;;5.77;2.30;;;15.60;99.90;;;;;;5024890;28;20855;-55
2022/06/20 07:05:27;;;;;;;4.90;2.57;;;15.70;99.90;;;;;;5029280;28;20426;-54
2022/06/20 07:07:59;;;;;;;5.27;2.33;;;15.80;99.90;;;;;;5029905;28;20464;-54
2022/06/20 07:11:01;;;;;;;4.33;2.30;;;16.10;99.90;;;;;;5031130;28;20425;-54
2022/06/20 07:13:54;;;;;;;4.33;1.93;;;16.90;99.90;;;;;;5030398;28;20476;-53
2022/06/20 07:16:33;;;;;;;4.03;2.20;;;17.30;99.90;;;;;;5029293;28;20430;-54
2022/06/20 07:19:00;;;;;;;5.03;2.10;;;17.50;99.90;;;;;;5026282;28;20472;-54
2022/06/20 07:21:28;;;;;;;4.90;2.30;;;17.90;99.90;;;;;;5029251;28;20607;-54
2022/06/20 07:24:03;;;;;;;4.23;2.20;;;18.20;99.90;;;;;;5028627;28;20446;-54
2022/06/20 07:26:43;;;;;;;9.23;2.07;;;18.30;99.90;;;;;;5030783;28;20428;-54
2022/06/20 07:29:18;;;;;;;5.97;2.00;;;18.60;99.90;;;;;;5030188;28;20540;-53
2022/06/20 07:32:04;;;;;;;6.40;2.13;;;18.80;99.90;;;;;;5024461;28;20448;-52
2022/06/20 07:34:32;;;;;;;3.43;1.90;;;18.80;99.90;;;;;;5028098;28;20430;-52
2022/06/20 07:37:02;;;;;;;5.13;1.83;;;18.70;99.90;;;;;;5028793;28;20860;-52
2022/06/20 07:39:34;;;;;;;5.60;2.10;;;19.10;99.90;;;;;;5030457;28;20469;-53
2022/06/20 07:42:06;;;;;;;6.83;1.80;;;19.30;99.90;;;;;;5031026;28;20430;-52
2022/06/20 07:44:42;;;;;;;4.87;2.53;;;19.60;99.90;;;;;;5030691;28;20472;-55
2022/06/20 07:47:30;;;;;;;5.03;1.90;;;19.70;99.90;;;;;;5030073;28;20424;-54
2022/06/20 07:49:59;;;;;;;3.77;2.03;;;19.70;99.90;;;;;;5029917;28;20815;-52
2022/06/20 07:52:35;;;;;;;8.27;1.80;;;19.30;99.90;;;;;;5033969;28;20440;-52
2022/06/20 07:55:07;;;;;;;6.70;2.60;;;19.10;99.90;;;;;;5034466;28;20421;-52
2022/06/20 07:57:44;;;;;;;6.03;2.27;;;18.80;99.90;;;;;;5034271;28;21008;-53
2022/06/20 08:00:21;;;;;;;4.53;1.70;;;18.50;99.90;;;;;;5031649;28;20472;-52
2022/06/20 08:02:55;;;;;;;7.47;1.87;;;18.10;99.90;;;;;;5034173;28;20448;-52
2022/06/20 08:05:26;;;;;;;3.23;1.80;;;17.90;99.90;;;;;;5033837;28;20441;-52
2022/06/20 08:07:58;;;;;;;5.60;1.50;;;17.90;99.90;;;;;;5031539;28;20421;-52
2022/06/20 08:10:28;;;;;;;4.13;1.60;;;17.70;99.90;;;;;;5034073;28;20413;-59
2022/06/20 08:13:03;;;;;;;6.40;1.90;;;17.30;99.90;;;;;;5033886;28;20406;-51
2022/06/20 08:15:36;;;;;;;3.67;1.50;;;17.10;99.90;;;;;;5033889;28;20433;-52
2022/06/20 08:18:02;;;;;;;4.33;2.20;;;16.90;99.90;;;;;;5034004;28;20425;-52
2022/06/20 08:20:35;;;;;;;2.40;1.90;;;16.70;99.90;;;;;;5034000;28;20417;-52
2022/06/20 08:23:08;;;;;;;4.47;2.27;;;16.70;99.90;;;;;;5033896;28;20425;-59
2022/06/20 08:25:38;;;;;;;3.30;1.73;;;16.70;99.90;;;;;;5034268;28;20425;-52
2022/06/20 08:28:18;;;;;;;2.83;1.80;;;17.00;99.90;;;;;;5034033;28;20508;-52
2022/06/20 08:31:05;;;;;;;4.13;1.60;;;17.70;99.90;;;;;;5027880;28;20452;-52
2022/06/20 08:33:39;;;;;;;5.97;2.57;;;18.20;99.90;;;;;;5027828;28;20416;-52
2022/06/20 08:36:13;;;;;;;5.00;2.30;;;18.40;99.90;;;;;;5034033;28;20433;-52
2022/06/20 08:38:46;;;;;;;4.83;2.50;;;18.20;99.90;;;;;;5033553;28;20460;-52
2022/06/20 08:41:39;;;;;;;5.07;2.17;;;17.90;99.90;;;;;;5033140;28;20441;-52
2022/06/20 08:44:31;;;;;;;10.27;3.20;;;17.30;99.90;;;;;;5027318;28;20977;-51
2022/06/20 08:47:24;;;;;;;8.33;3.03;;;16.90;99.90;;;;;;5031718;28;20464;-52
2022/06/20 08:50:36;;;;;;;6.83;2.40;;;16.50;99.90;;;;;;5033399;28;20424;-52
2022/06/20 08:53:21;;;;;;;4.67;3.00;;;16.50;99.90;;;;;;5033663;28;20440;-52
2022/06/20 08:55:46;;;;;;;6.87;3.03;;;16.70;99.90;;;;;;5027464;28;20433;-52
2022/06/20 08:58:18;;;;;;;6.13;2.83;;;17.00;99.90;;;;;;5032381;28;20453;-52
2022/06/20 09:00:50;;;;;;;6.07;3.17;;;17.30;99.90;;;;;;5035811;28;20202;-52
2022/06/20 09:03:31;;;;;;;7.73;3.10;;;17.40;99.90;;;;;;5032145;28;20826;-52
2022/06/20 09:06:38;;;;;;;9.47;2.63;;;17.60;99.90;;;;;;5032409;28;20960;-52
2022/06/20 09:09:37;;;;;;;3.10;2.53;;;18.10;99.90;;;;;;5014157;28;20437;-52
2022/06/20 09:12:24;;;;;;;9.23;3.43;;;18.50;99.90;;;;;;5029119;28;20435;-52
2022/06/20 09:15:11;;;;;;;10.23;3.20;;;18.90;99.90;;;;;;5032634;28;20516;-52
2022/06/20 09:17:59;;;;;;;8.30;3.57;;;19.20;99.90;;;;;;5025952;28;20458;-52
2022/06/20 09:20:46;;;;;;;8.20;3.20;;;19.20;99.90;;;;;;5033829;28;20454;-59
2022/06/20 09:23:35;;;;;;;11.17;3.20;;;18.80;99.90;;;;;;5032027;28;20497;-52
2022/06/20 09:26:34;;;;;;;10.23;3.03;;;18.60;99.90;;;;;;5022685;28;20436;-51
2022/06/20 09:29:18;;;;;;;8.23;3.20;;;19.70;99.90;;;;;;5025112;28;20442;-52
2022/06/20 09:32:10;;;;;;;4.90;2.73;;;20.70;99.90;;;;;;5028591;28;20437;-51
2022/06/20 09:35:07;;;;;;;4.80;2.20;;;20.70;99.90;;;;;;5032043;28;20430;-52
2022/06/20 09:37:45;;;;;;;6.90;3.47;;;20.00;99.90;;;;;;5027142;28;20499;-52
2022/06/20 09:40:49;;;;;;;6.10;2.73;;;19.20;99.90;;;;;;5029306;28;20564;-52
2022/06/20 09:43:35;;;;;;;8.33;2.77;;;18.40;99.90;;;;;;5032665;28;20468;-51
2022/06/20 09:46:27;;;;;;;7.77;3.03;;;17.70;99.90;;;;;;5029699;28;20489;-52
2022/06/20 09:49:12;;;;;;;9.23;3.30;;;18.40;99.90;;;;;;5026938;28;20454;-52
2022/06/20 09:51:52;;;;;;;7.53;3.40;;;19.70;99.90;;;;;;5030434;28;20425;-54
2022/06/20 09:54:33;;;;;;;6.40;2.93;;;21.00;99.90;;;;;;5031479;28;20452;-51
2022/06/20 09:57:13;;;;;;;5.27;3.00;;;21.80;99.90;;;;;;5030545;28;20441;-52
2022/06/20 09:59:51;;;;;;;9.10;2.83;;;22.30;99.90;;;;;;5030149;28;20526;-52
2022/06/20 10:02:54;;;;;;;4.87;2.57;;;21.50;99.90;;;;;;5029842;28;20433;-52
2022/06/20 10:05:40;;;;;;;13.90;3.57;;;20.50;99.90;;;;;;5025811;28;20437;-52
2022/06/20 10:08:20;;;;;;;5.40;2.50;;;21.00;99.90;;;;;;5031215;28;20429;-51
2022/06/20 10:11:17;;;;;;;5.53;2.77;;;21.80;99.90;;;;;;5025460;28;20567;-52
2022/06/20 10:14:00;;;;;;;4.90;2.20;;;22.90;99.90;;;;;;5029661;28;20871;-52
2022/06/20 10:16:34;;;;;;;3.57;2.17;;;23.40;99.90;;;;;;5029340;28;20425;-52
2022/06/20 10:19:22;;;;;;;5.47;2.40;;;22.40;99.90;;;;;;5028662;28;20473;-56
2022/06/20 10:21:52;;;;;;;8.90;2.70;;;21.60;99.90;;;;;;5027853;28;20949;-51
2022/06/20 10:24:29;;;;;;;2.90;2.30;;;20.50;99.90;;;;;;5031465;28;20484;-52
2022/06/20 10:27:07;;;;;;;6.33;2.50;;;20.00;99.90;;;;;;5028509;28;20870;-52
2022/06/20 10:30:03;;;;;;;3.70;2.60;;;19.60;99.90;;;;;;5031474;28;20520;-53
2022/06/20 10:32:47;;;;;;;6.30;2.50;;;20.50;99.90;;;;;;5028924;28;20477;-52
2022/06/20 10:35:35;;;;;;;9.27;3.23;;;21.70;99.90;;;;;;5025064;28;20447;-52
2022/06/20 10:38:11;;;;;;;6.73;2.60;;;22.50;99.90;;;;;;5030040;28;20417;-52
2022/06/20 10:41:05;;;;;;;2.80;2.37;;;23.20;99.90;;;;;;5031343;28;20433;-52
2022/06/20 10:44:10;;;;;;;7.07;3.07;;;23.30;99.90;;;;;;5028608;28;20471;-52
2022/06/20 10:46:42;;;;;;;4.73;2.30;;;22.90;99.90;;;;;;5030698;28;20900;-52
2022/06/20 10:49:36;;;;;;;4.80;2.60;;;21.90;99.90;;;;;;5030972;28;20417;-52
2022/06/20 10:52:04;;;;;;;8.07;2.70;;;20.70;99.90;;;;;;5029059;28;20449;-52
2022/06/20 10:54:35;;;;;;;4.50;2.70;;;20.50;99.90;;;;;;5031004;28;20737;-53
2022/06/20 10:57:18;;;;;;;5.60;2.53;;;21.50;99.90;;;;;;5029797;28;20437;-52
2022/06/20 10:59:57;;;;;;;4.70;2.97;;;22.80;99.90;;;;;;5030167;28;20464;-58
2022/06/20 11:02:29;;;;;;;9.07;2.57;;;22.60;99.90;;;;;;5024546;28;20429;-52
2022/06/20 11:05:16;;;;;;;7.77;3.67;;;21.70;99.90;;;;;;5030192;28;20453;-52
2022/06/20 11:08:07;;;;;;;8.07;2.93;;;21.60;99.90;;;;;;5031578;28;20437;-52
2022/06/20 11:10:38;;;;;;;5.33;2.40;;;21.00;99.90;;;;;;5023250;28;20413;-52
2022/06/20 11:13:19;;;;;;;4.93;2.63;;;20.90;99.90;;;;;;5029716;28;21290;-52
2022/06/20 11:16:00;;;;;;;5.93;3.00;;;20.50;99.90;;;;;;5027594;28;20821;-53
2022/06/20 11:18:51;;;;;;;7.57;3.63;;;19.80;99.90;;;;;;5025341;28;20551;-52
2022/06/20 11:21:44;;;;;;;10.80;3.30;;;19.70;99.90;;;;;;5030827;28;20845;-52
2022/06/20 11:24:19;;;;;;;5.63;2.60;;;20.60;99.90;;;;;;5029528;28;20433;-53
2022/06/20 11:27:03;;;;;;;5.70;2.50;;;21.50;99.90;;;;;;5034968;28;20468;-56
2022/06/20 11:29:56;;;;;;;10.47;2.00;;;22.00;99.90;;;;;;5034761;28;20424;-53
2022/06/20 11:32:48;;;;;;;8.33;2.20;;;23.00;99.90;;;;;;5027895;28;20448;-52
2022/06/20 11:35:24;;;;;;;3.43;1.90;;;23.80;99.90;;;;;;5030229;28;20957;-53
2022/06/20 11:37:52;;;;;;;4.93;1.20;;;24.40;99.90;;;;;;5032983;28;20566;-52
2022/06/20 11:40:39;;;;;;;6.63;1.83;;;24.60;99.90;;;;;;5034430;28;20949;-52
2022/06/20 11:43:31;;;;;;;4.20;1.70;;;24.60;99.90;;;;;;5033533;28;20480;-52
2022/06/20 11:46:13;;;;;;;3.83;1.60;;;24.90;99.90;;;;;;5028160;28;20552;-53
2022/06/20 11:48:56;;;;;;;3.80;1.97;;;24.50;99.90;;;;;;5032917;28;20445;-52
2022/06/20 11:51:49;;;;;;;3.47;1.70;;;24.10;99.90;;;;;;5033464;28;20421;-53
2022/06/20 11:54:45;;;;;;;3.47;1.67;;;23.20;99.90;;;;;;5034019;28;20516;-53
2022/06/20 11:57:11;;;;;;;4.53;1.53;;;22.90;99.90;;;;;;5034157;28;20524;-53
2022/06/20 12:00:03;;;;;;;3.53;1.40;;;23.50;99.90;;;;;;5033086;28;20464;-53
2022/06/20 12:02:30;;;;;;;3.63;1.60;;;23.20;99.90;;;;;;5027241;28;20601;-53
2022/06/20 12:04:58;;;;;;;4.73;2.13;;;23.40;99.90;;;;;;5034204;28;20429;-54
2022/06/20 12:07:43;;;;;;;4.03;1.40;;;24.10;99.90;;;;;;5032838;28;20520;-53
2022/06/20 12:10:31;;;;;;;4.03;1.63;;;24.90;99.90;;;;;;5026928;28;20447;-53
2022/06/20 12:13:26;;;;;;;4.30;2.20;;;25.10;99.90;;;;;;5032794;28;20491;-53
2022/06/20 12:16:24;;;;;;;3.70;1.43;;;23.50;99.90;;;;;;5029825;28;20440;-53
2022/06/20 12:24:43;;;;;;;4.22;1.40;;;23.50;99.90;;;;;;5031544;28;20921;-52
2022/06/20 12:27:16;;;;;;;2.37;1.87;;;24.00;99.90;;;;;;5033213;28;20189;-53
2022/06/20 12:29:44;;;;;;;4.07;1.80;;;24.10;99.90;;;;;;5031890;28;20433;-52
2022/06/20 12:32:17;;;;;;;4.07;1.70;;;22.70;99.90;;;;;;5033673;28;20436;-52
2022/06/20 12:34:51;;;;;;;3.43;1.70;;;21.30;99.90;;;;;;5032575;28;20784;-52
2022/06/20 12:37:32;;;;;;;4.50;1.67;;;20.40;99.90;;;;;;5031561;28;20536;-56
2022/06/20 12:40:01;;;;;;;3.33;1.50;;;20.00;99.90;;;;;;5032344;28;20468;-52
2022/06/20 12:42:53;;;;;;;2.30;1.40;;;19.80;99.90;;;;;;5032121;28;20774;-51
2022/06/20 12:45:41;;;;;;;4.50;1.27;;;20.20;99.90;;;;;;5030770;28;20918;-52
2022/06/20 12:48:32;;;;;;;1.67;1.30;;;20.80;99.90;;;;;;5029273;28;20528;-52
2022/06/20 12:51:18;;;;;;;4.73;1.40;;;20.90;99.90;;;;;;5028027;28;20484;-52
2022/06/20 12:53:56;;;;;;;2.50;1.40;;;21.00;99.90;;;;;;5030571;28;20477;-51
2022/06/20 12:56:39;;;;;;;2.70;1.60;;;20.70;99.90;;;;;;5033054;28;20430;-52
2022/06/20 12:59:29;;;;;;;3.70;1.60;;;20.60;99.90;;;;;;5032359;28;20899;-51
2022/06/20 13:02:25;;;;;;;1.37;1.10;;;21.20;99.90;;;;;;5030651;28;21505;-53
2022/06/20 13:05:10;;;;;;;2.50;1.20;;;21.20;99.90;;;;;;5032764;28;20751;-53
2022/06/20 13:07:54;;;;;;;8.80;1.87;;;21.70;99.90;;;;;;5026715;28;20448;-52
2022/06/20 13:10:57;;;;;;;2.37;1.40;;;22.90;99.90;;;;;;5032235;28;20445;-52
2022/06/20 13:13:40;;;;;;;1.50;1.40;;;22.90;99.90;;;;;;5001644;28;20832;-52
2022/06/20 13:16:21;;;;;;;2.70;1.60;;;22.70;99.90;;;;;;5032848;28;20418;-52
2022/06/20 13:19:08;;;;;;;5.70;1.80;;;22.20;99.90;;;;;;5033184;28;20454;-52
2022/06/20 13:21:54;;;;;;;4.73;1.63;;;21.90;99.90;;;;;;5032573;28;20428;-53
2022/06/20 13:24:43;;;;;;;2.83;1.80;;;21.50;99.90;;;;;;5036635;28;20460;-52
2022/06/20 13:27:32;;;;;;;3.43;2.03;;;20.40;99.90;;;;;;5032290;28;20417;-52
2022/06/20 13:30:11;;;;;;;7.30;2.07;;;20.00;99.90;;;;;;5031114;28;20488;-52
2022/06/20 13:33:00;;;;;;;3.53;1.90;;;19.90;99.90;;;;;;5024913;28;20436;-52
2022/06/20 13:35:55;;;;;;;4.32;1.70;;;20.80;99.90;;;;;;5027727;28;20424;-52
2022/06/20 13:38:39;;;;;;;4.87;1.90;;;21.70;99.90;;;;;;5031243;28;20274;-51
2022/06/20 13:41:12;;;;;;;4.83;2.00;;;21.50;99.90;;;;;;5031188;28;20441;-52
2022/06/20 13:44:16;;;;;;;3.70;1.73;;;21.70;99.90;;;;;;5032192;28;20437;-51
2022/06/20 13:46:54;;;;;;;7.67;1.83;;;22.00;99.90;;;;;;5031233;28;20460;-52
2022/06/20 13:49:50;;;;;;;4.33;1.93;;;22.20;99.90;;;;;;5029355;28;20507;-52
2022/06/20 13:52:25;;;;;;;3.77;2.07;;;21.40;99.90;;;;;;5020204;28;20426;-52